PWSweather.com
Personal Weather Stations
Station Observations
OBSERWACJEMETEO
Skórowo, SkorowoPL 76-230

SkórowoSkorowoPL 76-230

Lat: 54.5030556, Lon: 17.5277777

Elevation: 77

Station Type: WH2080

http://obserwacjemeteo.eu/

High Low Average
Temperature 67.6°F19.8°C 52.9°F11.6°C 58.6°F14.8°C
Dew Point 60.1°F15.6°C 45.4°F7.4°C 51.5°F10.8°C
Winds 4.5 mph 7.2 kmh Calm Calm 2.0 mph SE3.2 kmh SE
Wind Gusts 8.3 mph13.4 kmh 1.6 mph2.6 kmh 4.0 mph6.4 kmh
Humidity 94% 60% 78%
Pressure 30.38 in1028.8 mb 30.14 in1020.7 mb -
Precipitation 0.03 in0.8 mm - -
Hour Temp Dew Point Humidity Winds Wind Gusts Pressure Precip Precip Rate Daily Precip Total
12:00 AM 53.2°F11.8°C 51.0°F10.6°C 92% 0.7 mph NE1.1 kmh NE 2.2 mph3.5 kmh 30.25 in1024.4 mb 0.00 in0.0 mm 0.00 in0.0 mm 0.00 in0.0 mm
12:10 AM 52.9°F11.6°C 50.9°F10.5°C 93% 0.7 mph ENE1.1 kmh ENE 2.2 mph3.5 kmh 30.25 in1024.4 mb 0.00 in0.0 mm 0.00 in0.0 mm 0.00 in0.0 mm
12:20 AM 53.1°F11.7°C 51.1°F10.6°C 93% 1.6 mph E2.6 kmh E 2.2 mph3.5 kmh 30.25 in1024.4 mb 0.00 in0.0 mm 0.00 in0.0 mm 0.00 in0.0 mm
12:30 AM 53.4°F11.9°C 51.7°F10.9°C 94% 1.6 mph ENE2.6 kmh ENE 3.1 mph5.0 kmh 30.25 in1024.4 mb 0.00 in0.0 mm 0.00 in0.0 mm 0.00 in0.0 mm
12:40 AM 53.6°F12.0°C 51.9°F11.1°C 94% 1.6 mph E2.6 kmh E 3.1 mph5.0 kmh 30.24 in1024.0 mb 0.00 in0.0 mm 0.00 in0.0 mm 0.00 in0.0 mm
12:50 AM 53.6°F12.0°C 51.9°F11.1°C 94% 0.7 mph E1.1 kmh E 2.2 mph3.5 kmh 30.23 in1023.7 mb 0.00 in0.0 mm 0.00 in0.0 mm 0.00 in0.0 mm
01:00 AM 53.4°F11.9°C 51.5°F10.8°C 93% Calm Calm 2.2 mph3.5 kmh 30.24 in1024.0 mb 0.00 in0.0 mm 0.00 in0.0 mm 0.00 in0.0 mm
01:10 AM 53.8°F12.1°C 52.1°F11.2°C 94% 1.6 mph ESE2.6 kmh ESE 2.2 mph3.5 kmh 30.23 in1023.7 mb 0.00 in0.0 mm 0.00 in0.0 mm 0.00 in0.0 mm
01:20 AM 54.0°F12.2°C 52.3°F11.3°C 94% 1.6 mph ESE2.6 kmh ESE 3.1 mph5.0 kmh 30.23 in1023.7 mb 0.00 in0.0 mm 0.00 in0.0 mm 0.00 in0.0 mm
01:30 AM 54.1°F12.3°C 52.2°F11.2°C 93% 1.6 mph E2.6 kmh E 3.1 mph5.0 kmh 30.23 in1023.7 mb 0.00 in0.0 mm 0.00 in0.0 mm 0.00 in0.0 mm
01:40 AM 54.1°F12.3°C 52.2°F11.2°C 93% 0.7 mph NE1.1 kmh NE 2.2 mph3.5 kmh 30.22 in1023.4 mb 0.00 in0.0 mm 0.00 in0.0 mm 0.00 in0.0 mm
01:50 AM 54.3°F12.4°C 52.3°F11.3°C 93% 1.6 mph SE2.6 kmh SE 2.2 mph3.5 kmh 30.23 in1023.7 mb 0.00 in0.0 mm 0.00 in0.0 mm 0.00 in0.0 mm
02:00 AM 54.3°F12.4°C 52.1°F11.2°C 92% 1.6 mph SE2.6 kmh SE 3.1 mph5.0 kmh 30.22 in1023.4 mb 0.00 in0.0 mm 0.00 in0.0 mm 0.00 in0.0 mm
02:10 AM 54.3°F12.4°C 52.1°F11.2°C 92% 0.7 mph ENE1.1 kmh ENE 3.1 mph5.0 kmh 30.22 in1023.4 mb 0.00 in0.0 mm 0.00 in0.0 mm 0.00 in0.0 mm
02:20 AM 54.3°F12.4°C 52.1°F11.2°C 92% 1.6 mph E2.6 kmh E 2.2 mph3.5 kmh 30.23 in1023.7 mb 0.00 in0.0 mm 0.00 in0.0 mm 0.00 in0.0 mm
02:30 AM 54.3°F12.4°C 52.1°F11.2°C 92% 0.7 mph E1.1 kmh E 3.1 mph5.0 kmh 30.22 in1023.4 mb 0.00 in0.0 mm 0.00 in0.0 mm 0.00 in0.0 mm
02:40 AM 54.3°F12.4°C 52.1°F11.2°C 92% 2.2 mph ESE3.5 kmh ESE 3.8 mph6.1 kmh 30.21 in1023.0 mb 0.00 in0.0 mm 0.00 in0.0 mm 0.00 in0.0 mm
02:50 AM 54.7°F12.6°C 51.8°F11.0°C 90% 2.2 mph E3.5 kmh E 3.8 mph6.1 kmh 30.21 in1023.0 mb 0.00 in0.0 mm 0.00 in0.0 mm 0.00 in0.0 mm
03:00 AM 54.9°F12.7°C 51.7°F10.9°C 89% 1.6 mph NE2.6 kmh NE 3.8 mph6.1 kmh 30.21 in1023.0 mb 0.00 in0.0 mm 0.00 in0.0 mm 0.00 in0.0 mm
03:10 AM 54.9°F12.7°C 51.4°F10.8°C 88% 1.6 mph NE2.6 kmh NE 3.1 mph5.0 kmh 30.21 in1023.0 mb 0.00 in0.0 mm 0.00 in0.0 mm 0.00 in0.0 mm
03:20 AM 55.0°F12.8°C 51.6°F10.9°C 88% 2.2 mph ENE3.5 kmh ENE 3.1 mph5.0 kmh 30.21 in1023.0 mb 0.00 in0.0 mm 0.00 in0.0 mm 0.00 in0.0 mm
03:30 AM 55.0°F12.8°C 51.2°F10.7°C 87% 2.2 mph E3.5 kmh E 3.8 mph6.1 kmh 30.20 in1022.7 mb 0.00 in0.0 mm 0.00 in0.0 mm 0.00 in0.0 mm
03:40 AM 55.4°F13.0°C 51.6°F10.9°C 87% 2.2 mph E3.5 kmh E 3.8 mph6.1 kmh 30.21 in1023.0 mb 0.00 in0.0 mm 0.00 in0.0 mm 0.00 in0.0 mm
03:50 AM 55.6°F13.1°C 51.8°F11.0°C 87% 2.2 mph ESE3.5 kmh ESE 4.5 mph7.2 kmh 30.20 in1022.7 mb 0.00 in0.0 mm 0.00 in0.0 mm 0.00 in0.0 mm
04:00 AM 55.8°F13.2°C 52.0°F11.1°C 87% 1.6 mph ENE2.6 kmh ENE 3.8 mph6.1 kmh 30.20 in1022.7 mb 0.00 in0.0 mm 0.00 in0.0 mm 0.00 in0.0 mm
04:10 AM 55.6°F13.1°C 51.8°F11.0°C 87% 1.6 mph ENE2.6 kmh ENE 2.2 mph3.5 kmh 30.19 in1022.4 mb 0.00 in0.0 mm 0.00 in0.0 mm 0.00 in0.0 mm
04:20 AM 55.6°F13.1°C 51.8°F11.0°C 87% 1.6 mph ESE2.6 kmh ESE 2.2 mph3.5 kmh 30.19 in1022.4 mb 0.00 in0.0 mm 0.00 in0.0 mm 0.00 in0.0 mm
04:30 AM 55.8°F13.2°C 52.0°F11.1°C 87% 1.6 mph E2.6 kmh E 3.8 mph6.1 kmh 30.19 in1022.4 mb 0.00 in0.0 mm 0.00 in0.0 mm 0.00 in0.0 mm
04:40 AM 55.9°F13.3°C 51.8°F11.0°C 86% 2.2 mph ESE3.5 kmh ESE 3.8 mph6.1 kmh 30.19 in1022.4 mb 0.00 in0.0 mm 0.00 in0.0 mm 0.00 in0.0 mm
04:50 AM 56.1°F13.4°C 52.0°F11.1°C 86% 2.2 mph E3.5 kmh E 3.1 mph5.0 kmh 30.19 in1022.4 mb 0.00 in0.0 mm 0.00 in0.0 mm 0.00 in0.0 mm
05:00 AM 56.3°F13.5°C 51.9°F11.1°C 85% 2.2 mph ENE3.5 kmh ENE 3.1 mph5.0 kmh 30.19 in1022.4 mb 0.00 in0.0 mm 0.00 in0.0 mm 0.00 in0.0 mm
05:10 AM 56.7°F13.7°C 51.9°F11.1°C 84% 2.2 mph ENE3.5 kmh ENE 3.8 mph6.1 kmh 30.19 in1022.4 mb 0.00 in0.0 mm 0.00 in0.0 mm 0.00 in0.0 mm
05:20 AM 56.8°F13.8°C 52.1°F11.2°C 84% 0.7 mph ESE1.1 kmh ESE 3.8 mph6.1 kmh 30.18 in1022.0 mb 0.00 in0.0 mm 0.00 in0.0 mm 0.00 in0.0 mm
05:30 AM 57.0°F13.9°C 51.9°F11.1°C 83% 2.2 mph E3.5 kmh E 4.5 mph7.2 kmh 30.18 in1022.0 mb 0.00 in0.0 mm 0.00 in0.0 mm 0.00 in0.0 mm
05:40 AM 56.8°F13.8°C 51.7°F10.9°C 83% 1.6 mph ESE2.6 kmh ESE 3.8 mph6.1 kmh 30.19 in1022.4 mb 0.00 in0.0 mm 0.00 in0.0 mm 0.00 in0.0 mm
05:50 AM 57.0°F13.9°C 51.9°F11.1°C 83% 2.2 mph ENE3.5 kmh ENE 3.1 mph5.0 kmh 30.18 in1022.0 mb 0.00 in0.0 mm 0.00 in0.0 mm 0.00 in0.0 mm
06:00 AM 57.2°F14.0°C 52.1°F11.2°C 83% 2.2 mph ENE3.5 kmh ENE 3.8 mph6.1 kmh 30.18 in1022.0 mb 0.00 in0.0 mm 0.00 in0.0 mm 0.00 in0.0 mm
06:10 AM 57.4°F14.1°C 52.3°F11.3°C 83% 1.6 mph ENE2.6 kmh ENE 3.8 mph6.1 kmh 30.17 in1021.7 mb 0.00 in0.0 mm 0.00 in0.0 mm 0.00 in0.0 mm
06:20 AM 57.7°F14.3°C 52.6°F11.4°C 83% 1.6 mph NE2.6 kmh NE 3.1 mph5.0 kmh 30.17 in1021.7 mb 0.00 in0.0 mm 0.00 in0.0 mm 0.00 in0.0 mm
06:30 AM 58.1°F14.5°C 52.6°F11.4°C 82% 3.1 mph ENE5.0 kmh ENE 4.5 mph7.2 kmh 30.17 in1021.7 mb 0.00 in0.0 mm 0.00 in0.0 mm 0.00 in0.0 mm
06:40 AM 59.0°F15.0°C 53.5°F11.9°C 82% 2.2 mph ENE3.5 kmh ENE 4.5 mph7.2 kmh 30.17 in1021.7 mb 0.00 in0.0 mm 0.00 in0.0 mm 0.00 in0.0 mm
06:50 AM 59.9°F15.5°C 54.1°F12.3°C 81% 3.1 mph ENE5.0 kmh ENE 4.5 mph7.2 kmh 30.16 in1021.3 mb 0.00 in0.0 mm 0.00 in0.0 mm 0.00 in0.0 mm
07:00 AM 60.3°F15.7°C 54.4°F12.4°C 81% 3.1 mph E5.0 kmh E 4.5 mph7.2 kmh 30.15 in1021.0 mb 0.00 in0.0 mm 0.00 in0.0 mm 0.00 in0.0 mm
07:10 AM 60.6°F15.9°C 54.8°F12.7°C 81% 2.2 mph E3.5 kmh E 3.8 mph6.1 kmh 30.16 in1021.3 mb 0.00 in0.0 mm 0.00 in0.0 mm 0.00 in0.0 mm
07:20 AM 61.0°F16.1°C 54.8°F12.7°C 80% 3.1 mph ESE5.0 kmh ESE 4.5 mph7.2 kmh 30.15 in1021.0 mb 0.00 in0.0 mm 0.00 in0.0 mm 0.00 in0.0 mm
07:30 AM 61.5°F16.4°C 55.3°F12.9°C 80% 2.2 mph E3.5 kmh E 4.5 mph7.2 kmh 30.16 in1021.3 mb 0.00 in0.0 mm 0.00 in0.0 mm 0.00 in0.0 mm
07:40 AM 61.9°F16.6°C 55.7°F13.2°C 80% 2.2 mph E3.5 kmh E 3.8 mph6.1 kmh 30.16 in1021.3 mb 0.00 in0.0 mm 0.00 in0.0 mm 0.00 in0.0 mm
07:50 AM 62.4°F16.9°C 56.2°F13.4°C 80% 2.2 mph E3.5 kmh E 3.8 mph6.1 kmh 30.15 in1021.0 mb 0.00 in0.0 mm 0.00 in0.0 mm 0.00 in0.0 mm
08:00 AM 63.7°F17.6°C 56.0°F13.3°C 76% 1.6 mph E2.6 kmh E 4.5 mph7.2 kmh 30.15 in1021.0 mb 0.00 in0.0 mm 0.00 in0.0 mm 0.00 in0.0 mm
08:10 AM 64.2°F17.9°C 55.8°F13.2°C 74% 2.2 mph E3.5 kmh E 5.4 mph8.7 kmh 30.15 in1021.0 mb 0.00 in0.0 mm 0.00 in0.0 mm 0.00 in0.0 mm
08:20 AM 64.0°F17.8°C 55.6°F13.1°C 74% 2.2 mph E3.5 kmh E 4.5 mph7.2 kmh 30.14 in1020.7 mb 0.00 in0.0 mm 0.00 in0.0 mm 0.00 in0.0 mm
08:30 AM 64.0°F17.8°C 56.0°F13.3°C 75% 3.1 mph E5.0 kmh E 4.5 mph7.2 kmh 30.14 in1020.7 mb 0.00 in0.0 mm 0.00 in0.0 mm 0.00 in0.0 mm
08:40 AM 66.9°F19.4°C 58.8°F14.9°C 75% 2.2 mph E3.5 kmh E 4.5 mph7.2 kmh 30.14 in1020.7 mb 0.00 in0.0 mm 0.00 in0.0 mm 0.00 in0.0 mm
08:50 AM 65.7°F18.7°C 56.4°F13.6°C 72% 3.1 mph E5.0 kmh E 5.4 mph8.7 kmh 30.14 in1020.7 mb 0.00 in0.0 mm 0.00 in0.0 mm 0.00 in0.0 mm
09:00 AM 65.5°F18.6°C 57.0°F13.9°C 74% 3.1 mph ENE5.0 kmh ENE 5.4 mph8.7 kmh 30.14 in1020.7 mb 0.00 in0.0 mm 0.00 in0.0 mm 0.00 in0.0 mm
09:10 AM 64.4°F18.0°C 56.0°F13.3°C 74% 1.6 mph ESE2.6 kmh ESE 3.8 mph6.1 kmh 30.14 in1020.7 mb 0.00 in0.0 mm 0.00 in0.0 mm 0.00 in0.0 mm
09:20 AM 63.5°F17.5°C 55.8°F13.2°C 76% 1.6 mph E2.6 kmh E 4.5 mph7.2 kmh 30.14 in1020.7 mb 0.00 in0.0 mm 0.00 in0.0 mm 0.00 in0.0 mm
09:30 AM 63.1°F17.3°C 56.9°F13.8°C 80% 1.6 mph ENE2.6 kmh ENE 3.8 mph6.1 kmh 30.15 in1021.0 mb 0.00 in0.0 mm 0.00 in0.0 mm 0.00 in0.0 mm
09:40 AM 62.8°F17.1°C 56.9°F13.8°C 81% 1.6 mph NE2.6 kmh NE 3.8 mph6.1 kmh 30.15 in1021.0 mb 0.00 in0.0 mm 0.00 in0.0 mm 0.00 in0.0 mm
09:50 AM 62.4°F16.9°C 56.9°F13.8°C 82% 1.6 mph N2.6 kmh N 6.0 mph9.7 kmh 30.15 in1021.0 mb 0.00 in0.0 mm 0.00 in0.0 mm 0.00 in0.0 mm
10:00 AM 62.1°F16.7°C 57.2°F14.0°C 84% 0.7 mph E1.1 kmh E 4.5 mph7.2 kmh 30.15 in1021.0 mb 0.00 in0.0 mm 0.00 in0.0 mm 0.00 in0.0 mm
10:10 AM 61.9°F16.6°C 57.3°F14.1°C 85% 1.6 mph ENE2.6 kmh ENE 5.4 mph8.7 kmh 30.15 in1021.0 mb 0.00 in0.0 mm 0.00 in0.0 mm 0.00 in0.0 mm
10:20 AM 61.9°F16.6°C 57.7°F14.3°C 86% 2.2 mph NNE3.5 kmh NNE 5.4 mph8.7 kmh 30.16 in1021.3 mb 0.00 in0.0 mm 0.00 in0.0 mm 0.00 in0.0 mm
10:30 AM 61.9°F16.6°C 58.0°F14.4°C 87% 2.2 mph NE3.5 kmh NE 5.4 mph8.7 kmh 30.15 in1021.0 mb 0.00 in0.0 mm 0.00 in0.0 mm 0.00 in0.0 mm
10:40 AM 61.9°F16.6°C 58.3°F14.6°C 88% 1.6 mph NE2.6 kmh NE 3.8 mph6.1 kmh 30.15 in1021.0 mb 0.00 in0.0 mm 0.00 in0.0 mm 0.00 in0.0 mm
10:50 AM 62.2°F16.8°C 58.7°F14.8°C 88% 1.6 mph ENE2.6 kmh ENE 3.8 mph6.1 kmh 30.16 in1021.3 mb 0.00 in0.0 mm 0.00 in0.0 mm 0.00 in0.0 mm
11:00 AM 62.4°F16.9°C 58.8°F14.9°C 88% 1.6 mph NE2.6 kmh NE 4.5 mph7.2 kmh 30.15 in1021.0 mb 0.00 in0.0 mm 0.00 in0.0 mm 0.00 in0.0 mm
11:10 AM 62.6°F17.0°C 59.0°F15.0°C 88% 1.6 mph NNE2.6 kmh NNE 3.1 mph5.0 kmh 30.15 in1021.0 mb 0.00 in0.0 mm 0.00 in0.0 mm 0.00 in0.0 mm
11:20 AM 62.2°F16.8°C 58.7°F14.8°C 88% 2.2 mph N3.5 kmh N 6.0 mph9.7 kmh 30.15 in1021.0 mb 0.00 in0.0 mm 0.00 in0.0 mm 0.00 in0.0 mm
11:30 AM 61.7°F16.5°C 58.4°F14.7°C 89% 1.6 mph NW2.6 kmh NW 3.8 mph6.1 kmh 30.15 in1021.0 mb 0.03 in0.8 mm 0.18 in4.6 mm 0.03 in0.8 mm
11:40 AM 62.8°F17.1°C 60.1°F15.6°C 91% 3.1 mph SE5.0 kmh SE 5.4 mph8.7 kmh 30.15 in1021.0 mb 0.03 in0.8 mm 0.00 in0.0 mm 0.03 in0.8 mm
11:50 AM 62.6°F17.0°C 59.6°F15.3°C 90% 2.2 mph WSW3.5 kmh WSW 6.9 mph11.1 kmh 30.17 in1021.7 mb 0.03 in0.8 mm 0.00 in0.0 mm 0.03 in0.8 mm
12:00 PM 61.5°F16.4°C 57.9°F14.4°C 88% 3.1 mph ESE5.0 kmh ESE 6.9 mph11.1 kmh 30.17 in1021.7 mb 0.03 in0.8 mm 0.00 in0.0 mm 0.03 in0.8 mm
12:10 PM 62.1°F16.7°C 58.2°F14.6°C 87% 4.5 mph WSW7.2 kmh WSW 6.9 mph11.1 kmh 30.18 in1022.0 mb 0.03 in0.8 mm 0.00 in0.0 mm 0.03 in0.8 mm
12:20 PM 61.9°F16.6°C 57.0°F13.9°C 84% 3.8 mph S6.1 kmh S 6.9 mph11.1 kmh 30.20 in1022.7 mb 0.03 in0.8 mm 0.00 in0.0 mm 0.03 in0.8 mm
12:30 PM 61.9°F16.6°C 56.7°F13.7°C 83% 1.6 mph SSW2.6 kmh SSW 6.9 mph11.1 kmh 30.20 in1022.7 mb 0.00 in0.0 mm 0.00 in0.0 mm 0.03 in0.8 mm
12:40 PM 63.5°F17.5°C 55.5°F13.1°C 75% 3.8 mph SSW6.1 kmh SSW 6.0 mph9.7 kmh 30.21 in1023.0 mb 0.00 in0.0 mm 0.00 in0.0 mm 0.03 in0.8 mm
12:50 PM 63.1°F17.3°C 54.4°F12.4°C 73% 3.8 mph S6.1 kmh S 8.3 mph13.4 kmh 30.21 in1023.0 mb 0.00 in0.0 mm 0.00 in0.0 mm 0.03 in0.8 mm
01:00 PM 64.9°F18.3°C 54.9°F12.7°C 70% 2.2 mph SW3.5 kmh SW 6.0 mph9.7 kmh 30.21 in1023.0 mb 0.00 in0.0 mm 0.00 in0.0 mm 0.03 in0.8 mm
01:10 PM 64.2°F17.9°C 52.6°F11.4°C 66% 2.2 mph SW3.5 kmh SW 6.0 mph9.7 kmh 30.22 in1023.4 mb 0.00 in0.0 mm 0.00 in0.0 mm 0.03 in0.8 mm
01:20 PM 63.5°F17.5°C 52.0°F11.1°C 66% 3.1 mph SSW5.0 kmh SSW 5.4 mph8.7 kmh 30.23 in1023.7 mb 0.00 in0.0 mm 0.00 in0.0 mm 0.03 in0.8 mm
01:30 PM 63.0°F17.2°C 53.4°F11.9°C 71% 4.5 mph SSW7.2 kmh SSW 6.9 mph11.1 kmh 30.23 in1023.7 mb 0.00 in0.0 mm 0.00 in0.0 mm 0.03 in0.8 mm
01:40 PM 64.4°F18.0°C 52.8°F11.6°C 66% 3.8 mph SW6.1 kmh SW 6.9 mph11.1 kmh 30.23 in1023.7 mb 0.00 in0.0 mm 0.00 in0.0 mm 0.03 in0.8 mm
01:50 PM 63.3°F17.4°C 53.0°F11.7°C 69% 3.1 mph S5.0 kmh S 6.0 mph9.7 kmh 30.24 in1024.0 mb 0.00 in0.0 mm 0.00 in0.0 mm 0.03 in0.8 mm
02:00 PM 63.7°F17.6°C 51.3°F10.7°C 64% 4.5 mph S7.2 kmh S 8.3 mph13.4 kmh 30.24 in1024.0 mb 0.00 in0.0 mm 0.00 in0.0 mm 0.03 in0.8 mm
02:10 PM 64.9°F18.3°C 52.9°F11.6°C 65% 3.8 mph S6.1 kmh S 6.0 mph9.7 kmh 30.24 in1024.0 mb 0.00 in0.0 mm 0.00 in0.0 mm 0.03 in0.8 mm
02:20 PM 63.7°F17.6°C 50.9°F10.5°C 63% 2.2 mph SSW3.5 kmh SSW 6.0 mph9.7 kmh 30.24 in1024.0 mb 0.00 in0.0 mm 0.00 in0.0 mm 0.03 in0.8 mm
02:30 PM 64.9°F18.3°C 52.1°F11.2°C 63% 3.1 mph S5.0 kmh S 5.4 mph8.7 kmh 30.25 in1024.4 mb 0.00 in0.0 mm 0.00 in0.0 mm 0.03 in0.8 mm
02:40 PM 65.7°F18.7°C 52.3°F11.3°C 62% 3.1 mph SW5.0 kmh SW 4.5 mph7.2 kmh 30.24 in1024.0 mb 0.00 in0.0 mm 0.00 in0.0 mm 0.03 in0.8 mm
02:50 PM 67.6°F19.8°C 53.3°F11.8°C 60% 2.2 mph WNW3.5 kmh WNW 6.9 mph11.1 kmh 30.25 in1024.4 mb 0.00 in0.0 mm 0.00 in0.0 mm 0.03 in0.8 mm
03:00 PM 63.5°F17.5°C 50.7°F10.4°C 63% 2.2 mph SW3.5 kmh SW 5.4 mph8.7 kmh 30.25 in1024.4 mb 0.00 in0.0 mm 0.00 in0.0 mm 0.03 in0.8 mm
03:10 PM 62.4°F16.9°C 52.5°F11.4°C 70% 2.2 mph WSW3.5 kmh WSW 5.4 mph8.7 kmh 30.25 in1024.4 mb 0.00 in0.0 mm 0.00 in0.0 mm 0.03 in0.8 mm
03:20 PM 62.2°F16.8°C 52.3°F11.3°C 70% 3.1 mph WSW5.0 kmh WSW 6.9 mph11.1 kmh 30.26 in1024.7 mb 0.00 in0.0 mm 0.00 in0.0 mm 0.03 in0.8 mm
03:30 PM 62.1°F16.7°C 50.2°F10.1°C 65% 3.1 mph W5.0 kmh W 6.0 mph9.7 kmh 30.26 in1024.7 mb 0.00 in0.0 mm 0.00 in0.0 mm 0.03 in0.8 mm
03:40 PM 61.0°F16.1°C 48.3°F9.1°C 63% 3.8 mph SW6.1 kmh SW 6.0 mph9.7 kmh 30.26 in1024.7 mb 0.00 in0.0 mm 0.00 in0.0 mm 0.03 in0.8 mm
03:50 PM 61.2°F16.2°C 48.9°F9.4°C 64% 4.5 mph SW7.2 kmh SW 5.4 mph8.7 kmh 30.27 in1025.1 mb 0.00 in0.0 mm 0.00 in0.0 mm 0.03 in0.8 mm
04:00 PM 60.6°F15.9°C 48.8°F9.3°C 65% 3.1 mph SE5.0 kmh SE 6.0 mph9.7 kmh 30.28 in1025.4 mb 0.00 in0.0 mm 0.00 in0.0 mm 0.03 in0.8 mm
04:10 PM 60.3°F15.7°C 48.5°F9.2°C 65% 2.2 mph SW3.5 kmh SW 4.5 mph7.2 kmh 30.27 in1025.1 mb 0.00 in0.0 mm 0.00 in0.0 mm 0.03 in0.8 mm
04:20 PM 60.4°F15.8°C 48.2°F9.0°C 64% 2.2 mph S3.5 kmh S 5.4 mph8.7 kmh 30.27 in1025.1 mb 0.00 in0.0 mm 0.00 in0.0 mm 0.03 in0.8 mm
04:30 PM 60.1°F15.6°C 48.3°F9.1°C 65% 2.2 mph WSW3.5 kmh WSW 5.4 mph8.7 kmh 30.28 in1025.4 mb 0.00 in0.0 mm 0.00 in0.0 mm 0.03 in0.8 mm
04:40 PM 60.4°F15.8°C 48.2°F9.0°C 64% 3.1 mph SSW5.0 kmh SSW 6.9 mph11.1 kmh 30.28 in1025.4 mb 0.00 in0.0 mm 0.00 in0.0 mm 0.03 in0.8 mm
04:50 PM 60.4°F15.8°C 47.4°F8.6°C 62% 3.8 mph S6.1 kmh S 7.6 mph12.2 kmh 30.28 in1025.4 mb 0.00 in0.0 mm 0.00 in0.0 mm 0.03 in0.8 mm
05:00 PM 60.1°F15.6°C 47.5°F8.6°C 63% 2.2 mph S3.5 kmh S 7.6 mph12.2 kmh 30.28 in1025.4 mb 0.00 in0.0 mm 0.00 in0.0 mm 0.03 in0.8 mm
05:10 PM 59.7°F15.4°C 47.1°F8.4°C 63% 3.8 mph SSE6.1 kmh SSE 4.5 mph7.2 kmh 30.29 in1025.7 mb 0.00 in0.0 mm 0.00 in0.0 mm 0.03 in0.8 mm
05:20 PM 59.4°F15.2°C 46.8°F8.2°C 63% 1.6 mph SW2.6 kmh SW 6.0 mph9.7 kmh 30.29 in1025.7 mb 0.00 in0.0 mm 0.00 in0.0 mm 0.03 in0.8 mm
05:30 PM 58.8°F14.9°C 46.7°F8.2°C 64% 1.6 mph SW2.6 kmh SW 3.8 mph6.1 kmh 30.30 in1026.1 mb 0.00 in0.0 mm 0.00 in0.0 mm 0.03 in0.8 mm
05:40 PM 58.3°F14.6°C 46.6°F8.1°C 65% 1.6 mph WSW2.6 kmh WSW 3.8 mph6.1 kmh 30.29 in1025.7 mb 0.00 in0.0 mm 0.00 in0.0 mm 0.03 in0.8 mm
05:50 PM 57.9°F14.4°C 46.6°F8.1°C 66% 1.6 mph S2.6 kmh S 3.8 mph6.1 kmh 30.29 in1025.7 mb 0.00 in0.0 mm 0.00 in0.0 mm 0.03 in0.8 mm
06:00 PM 57.4°F14.1°C 46.5°F8.1°C 67% 0.7 mph SW1.1 kmh SW 4.5 mph7.2 kmh 30.30 in1026.1 mb 0.00 in0.0 mm 0.00 in0.0 mm 0.03 in0.8 mm
06:10 PM 57.4°F14.1°C 46.9°F8.3°C 68% 1.6 mph WSW2.6 kmh WSW 3.1 mph5.0 kmh 30.30 in1026.1 mb 0.00 in0.0 mm 0.00 in0.0 mm 0.03 in0.8 mm
06:20 PM 57.7°F14.3°C 46.9°F8.3°C 67% 3.1 mph SW5.0 kmh SW 4.5 mph7.2 kmh 30.30 in1026.1 mb 0.00 in0.0 mm 0.00 in0.0 mm 0.03 in0.8 mm
06:30 PM 57.2°F14.0°C 47.1°F8.4°C 69% 0.7 mph WSW1.1 kmh WSW 3.8 mph6.1 kmh 30.30 in1026.1 mb 0.00 in0.0 mm 0.00 in0.0 mm 0.03 in0.8 mm
06:40 PM 57.2°F14.0°C 46.7°F8.2°C 68% 0.7 mph SSW1.1 kmh SSW 3.8 mph6.1 kmh 30.30 in1026.1 mb 0.00 in0.0 mm 0.00 in0.0 mm 0.03 in0.8 mm
06:50 PM 57.2°F14.0°C 46.7°F8.2°C 68% 1.6 mph W2.6 kmh W 3.1 mph5.0 kmh 30.31 in1026.4 mb 0.00 in0.0 mm 0.00 in0.0 mm 0.03 in0.8 mm
07:00 PM 57.0°F13.9°C 46.6°F8.1°C 68% 0.7 mph SW1.1 kmh SW 3.1 mph5.0 kmh 30.30 in1026.1 mb 0.00 in0.0 mm 0.00 in0.0 mm 0.03 in0.8 mm
07:10 PM 57.0°F13.9°C 46.2°F7.9°C 67% 0.7 mph SW1.1 kmh SW 3.1 mph5.0 kmh 30.30 in1026.1 mb 0.00 in0.0 mm 0.00 in0.0 mm 0.03 in0.8 mm
07:20 PM 57.0°F13.9°C 45.8°F7.7°C 66% 1.6 mph WSW2.6 kmh WSW 3.1 mph5.0 kmh 30.32 in1026.8 mb 0.00 in0.0 mm 0.00 in0.0 mm 0.03 in0.8 mm
07:30 PM 56.8°F13.8°C 46.0°F7.8°C 67% 1.6 mph SW2.6 kmh SW 3.1 mph5.0 kmh 30.31 in1026.4 mb 0.00 in0.0 mm 0.00 in0.0 mm 0.03 in0.8 mm
07:40 PM 57.0°F13.9°C 46.6°F8.1°C 68% 1.6 mph S2.6 kmh S 4.5 mph7.2 kmh 30.32 in1026.8 mb 0.00 in0.0 mm 0.00 in0.0 mm 0.03 in0.8 mm
07:50 PM 56.7°F13.7°C 46.6°F8.1°C 69% 0.7 mph S1.1 kmh S 3.1 mph5.0 kmh 30.32 in1026.8 mb 0.00 in0.0 mm 0.00 in0.0 mm 0.03 in0.8 mm
08:00 PM 56.1°F13.4°C 46.5°F8.1°C 70% 0.7 mph S1.1 kmh S 2.2 mph3.5 kmh 30.32 in1026.8 mb 0.00 in0.0 mm 0.00 in0.0 mm 0.03 in0.8 mm
08:10 PM 55.8°F13.2°C 46.1°F7.8°C 70% 1.6 mph SSE2.6 kmh SSE 2.2 mph3.5 kmh 30.33 in1027.1 mb 0.00 in0.0 mm 0.00 in0.0 mm 0.03 in0.8 mm
08:20 PM 55.8°F13.2°C 46.1°F7.8°C 70% 0.7 mph S1.1 kmh S 2.2 mph3.5 kmh 30.32 in1026.8 mb 0.00 in0.0 mm 0.00 in0.0 mm 0.03 in0.8 mm
08:30 PM 55.0°F12.8°C 45.4°F7.4°C 70% 0.7 mph SSW1.1 kmh SSW 2.2 mph3.5 kmh 30.33 in1027.1 mb 0.00 in0.0 mm 0.00 in0.0 mm 0.03 in0.8 mm
08:40 PM 54.9°F12.7°C 45.6°F7.6°C 71% 1.6 mph SE2.6 kmh SE 2.2 mph3.5 kmh 30.33 in1027.1 mb 0.00 in0.0 mm 0.00 in0.0 mm 0.03 in0.8 mm
08:50 PM 54.7°F12.6°C 45.5°F7.5°C 71% 0.7 mph S1.1 kmh S 2.2 mph3.5 kmh 30.33 in1027.1 mb 0.00 in0.0 mm 0.00 in0.0 mm 0.03 in0.8 mm
09:00 PM 54.3°F12.4°C 46.2°F7.9°C 74% 0.7 mph SW1.1 kmh SW 2.2 mph3.5 kmh 30.33 in1027.1 mb 0.00 in0.0 mm 0.00 in0.0 mm 0.03 in0.8 mm
09:10 PM 54.9°F12.7°C 46.0°F7.8°C 72% 0.7 mph SW1.1 kmh SW 2.2 mph3.5 kmh 30.33 in1027.1 mb 0.00 in0.0 mm 0.00 in0.0 mm 0.03 in0.8 mm
09:20 PM 54.3°F12.4°C 46.6°F8.1°C 75% 0.7 mph SSW1.1 kmh SSW 2.2 mph3.5 kmh 30.34 in1027.4 mb 0.00 in0.0 mm 0.00 in0.0 mm 0.03 in0.8 mm
09:30 PM 54.7°F12.6°C 46.2°F7.9°C 73% 1.6 mph SSW2.6 kmh SSW 2.2 mph3.5 kmh 30.34 in1027.4 mb 0.00 in0.0 mm 0.00 in0.0 mm 0.03 in0.8 mm
09:40 PM 54.1°F12.3°C 46.8°F8.2°C 76% 0.7 mph SSW1.1 kmh SSW 2.2 mph3.5 kmh 30.34 in1027.4 mb 0.00 in0.0 mm 0.00 in0.0 mm 0.03 in0.8 mm
09:50 PM 54.1°F12.3°C 47.4°F8.6°C 78% 0.7 mph SW1.1 kmh SW 2.2 mph3.5 kmh 30.35 in1027.8 mb 0.00 in0.0 mm 0.00 in0.0 mm 0.03 in0.8 mm
10:00 PM 54.3°F12.4°C 47.6°F8.7°C 78% 0.7 mph S1.1 kmh S 1.6 mph2.6 kmh 30.35 in1027.8 mb 0.00 in0.0 mm 0.00 in0.0 mm 0.03 in0.8 mm
10:10 PM 54.5°F12.5°C 46.7°F8.2°C 75% 0.7 mph S1.1 kmh S 2.2 mph3.5 kmh 30.35 in1027.8 mb 0.00 in0.0 mm 0.00 in0.0 mm 0.03 in0.8 mm
10:20 PM 54.7°F12.6°C 46.9°F8.3°C 75% 0.7 mph S1.1 kmh S 2.2 mph3.5 kmh 30.35 in1027.8 mb 0.00 in0.0 mm 0.00 in0.0 mm 0.03 in0.8 mm
10:30 PM 54.1°F12.3°C 47.8°F8.8°C 79% 0.7 mph SSE1.1 kmh SSE 1.6 mph2.6 kmh 30.35 in1027.8 mb 0.00 in0.0 mm 0.00 in0.0 mm 0.03 in0.8 mm
10:40 PM 54.1°F12.3°C 47.8°F8.8°C 79% 0.7 mph SSW1.1 kmh SSW 2.2 mph3.5 kmh 30.36 in1028.1 mb 0.00 in0.0 mm 0.00 in0.0 mm 0.03 in0.8 mm
10:50 PM 54.5°F12.5°C 47.1°F8.4°C 76% Calm Calm 2.2 mph3.5 kmh 30.35 in1027.8 mb 0.00 in0.0 mm 0.00 in0.0 mm 0.03 in0.8 mm
11:00 PM 54.1°F12.3°C 47.8°F8.8°C 79% 0.7 mph S1.1 kmh S 3.1 mph5.0 kmh 30.36 in1028.1 mb 0.00 in0.0 mm 0.00 in0.0 mm 0.03 in0.8 mm
11:10 PM 54.0°F12.2°C 47.9°F8.8°C 80% 0.7 mph E1.1 kmh E 1.6 mph2.6 kmh 30.36 in1028.1 mb 0.00 in0.0 mm 0.00 in0.0 mm 0.03 in0.8 mm
11:20 PM 54.3°F12.4°C 48.0°F8.9°C 79% 0.7 mph SSE1.1 kmh SSE 3.1 mph5.0 kmh 30.36 in1028.1 mb 0.00 in0.0 mm 0.00 in0.0 mm 0.03 in0.8 mm
11:30 PM 54.5°F12.5°C 46.7°F8.2°C 75% 1.6 mph S2.6 kmh S 2.2 mph3.5 kmh 30.37 in1028.4 mb 0.00 in0.0 mm 0.00 in0.0 mm 0.03 in0.8 mm
11:40 PM 54.3°F12.4°C 47.6°F8.7°C 78% 1.6 mph S2.6 kmh S 3.1 mph5.0 kmh 30.37 in1028.4 mb 0.00 in0.0 mm 0.00 in0.0 mm 0.03 in0.8 mm
11:50 PM 54.5°F12.5°C 46.4°F8.0°C 74% 0.7 mph SSW1.1 kmh SSW 3.1 mph5.0 kmh 30.38 in1028.8 mb 0.00 in0.0 mm 0.00 in0.0 mm 0.03 in0.8 mm